createdAt,value
2019-02-18T00:00:45.985Z,32.30
2019-02-18T00:03:12.143Z,32.30
2019-02-18T00:05:38.292Z,32.30
2019-02-18T00:08:04.444Z,32.20
2019-02-18T00:10:30.595Z,32.20
2019-02-18T00:12:56.747Z,32.20
2019-02-18T00:15:22.902Z,32.20
2019-02-18T00:17:49.060Z,32.20
2019-02-18T00:20:15.209Z,32.40
2019-02-18T00:22:41.362Z,32.30
2019-02-18T00:25:07.522Z,32.20
2019-02-18T00:27:33.677Z,32.20
2019-02-18T00:29:59.829Z,32.20
2019-02-18T00:32:25.984Z,32.30
2019-02-18T00:34:52.133Z,32.20
2019-02-18T00:37:24.362Z,32.20
2019-02-18T00:39:44.494Z,32.20
2019-02-18T00:42:10.649Z,32.30
2019-02-18T00:44:36.796Z,32.30
2019-02-18T00:47:02.958Z,32.20
2019-02-18T00:49:29.104Z,32.10
2019-02-18T00:51:55.313Z,33.00
2019-02-18T00:54:21.457Z,32.20
2019-02-18T00:56:47.610Z,32.30
2019-02-18T00:59:13.756Z,32.20
2019-02-18T01:01:39.915Z,32.20
2019-02-18T01:04:06.065Z,33.00
2019-02-18T01:06:32.221Z,32.30
2019-02-18T01:08:59.174Z,32.20
2019-02-18T01:11:25.317Z,32.20
2019-02-18T01:13:51.468Z,32.20
2019-02-18T01:16:17.665Z,32.20
2019-02-18T01:18:43.816Z,32.30
2019-02-18T01:21:09.974Z,32.40
2019-02-18T01:23:36.134Z,32.30
2019-02-18T01:26:02.292Z,32.20
2019-02-18T01:28:28.437Z,32.30
2019-02-18T01:30:54.582Z,32.20
2019-02-18T01:33:20.737Z,32.30
2019-02-18T01:35:46.888Z,32.10
2019-02-18T01:38:13.042Z,32.20
2019-02-18T01:40:39.229Z,32.20
2019-02-18T01:43:05.384Z,32.20
2019-02-18T01:45:31.532Z,32.20
2019-02-18T01:47:57.684Z,32.20
2019-02-18T01:50:24.603Z,32.30
2019-02-18T01:52:50.752Z,32.30
2019-02-18T01:55:16.909Z,32.20
2019-02-18T01:57:43.076Z,32.10
2019-02-18T02:00:09.232Z,32.10
2019-02-18T02:02:36.149Z,32.20
2019-02-18T02:05:02.299Z,32.10
2019-02-18T02:07:28.448Z,32.20
2019-02-18T02:09:54.600Z,32.10
2019-02-18T02:12:20.753Z,32.10
2019-02-18T02:14:46.918Z,32.20
2019-02-18T02:17:13.067Z,32.30
2019-02-18T02:19:39.204Z,32.10
2019-02-18T02:22:05.361Z,32.20
2019-02-18T02:24:31.516Z,32.10
2019-02-18T02:26:58.080Z,32.10
2019-02-18T02:29:24.237Z,32.10
2019-02-18T02:31:50.426Z,32.20
2019-02-18T02:34:17.520Z,32.10
2019-02-18T02:36:43.670Z,32.10
2019-02-18T02:39:09.816Z,32.20
2019-02-18T02:41:36.052Z,32.10
2019-02-18T02:44:02.163Z,32.20
2019-02-18T02:46:28.330Z,32.20
2019-02-18T02:48:54.482Z,32.20
2019-02-18T02:51:20.641Z,32.90
2019-02-18T02:53:46.793Z,32.20
2019-02-18T02:56:12.942Z,32.20
2019-02-18T02:58:39.133Z,32.30
2019-02-18T03:01:05.439Z,32.30
2019-02-18T03:03:31.596Z,32.20
2019-02-18T03:05:57.752Z,32.10
2019-02-18T03:08:23.903Z,32.20
2019-02-18T03:10:50.055Z,32.90
2019-02-18T03:13:16.206Z,32.10
2019-02-18T03:15:42.527Z,32.10
2019-02-18T03:18:08.696Z,32.10
2019-02-18T03:20:34.849Z,32.10
2019-02-18T03:23:01.009Z,32.10
2019-02-18T03:25:27.162Z,32.10
2019-02-18T03:27:53.303Z,32.30
2019-02-18T03:30:19.458Z,32.10
2019-02-18T03:32:45.613Z,32.20
2019-02-18T03:35:11.765Z,32.20
2019-02-18T03:37:37.916Z,32.40
2019-02-18T03:40:04.064Z,32.40
2019-02-18T03:42:30.212Z,33.00
2019-02-18T03:44:56.357Z,32.10
2019-02-18T03:47:22.505Z,32.30
2019-02-18T03:49:48.660Z,32.20
2019-02-18T03:52:15.579Z,32.50
2019-02-18T03:54:41.729Z,32.40
2019-02-18T03:57:07.884Z,32.30
2019-02-18T03:59:34.053Z,32.10
2019-02-18T04:02:00.205Z,32.20
2019-02-18T04:04:27.117Z,32.20
2019-02-18T04:06:53.262Z,32.10
2019-02-18T04:09:19.412Z,32.00
2019-02-18T04:11:45.565Z,32.10
2019-02-18T04:14:11.718Z,32.30
2019-02-18T04:16:37.870Z,32.40
2019-02-18T04:19:04.017Z,32.10
2019-02-18T04:21:30.171Z,32.10
2019-02-18T04:23:56.327Z,32.10
2019-02-18T04:26:22.481Z,32.20
2019-02-18T04:28:49.402Z,32.10
2019-02-18T04:31:15.554Z,32.00
2019-02-18T04:33:41.732Z,32.10
2019-02-18T04:36:07.884Z,32.20
2019-02-18T04:38:34.032Z,32.30
2019-02-18T04:41:01.006Z,32.20
2019-02-18T04:43:27.146Z,32.10
2019-02-18T04:45:53.293Z,32.10
2019-02-18T04:48:19.449Z,32.20
2019-02-18T04:50:45.598Z,32.10
2019-02-18T04:53:12.512Z,32.30
2019-02-18T04:55:38.660Z,32.30
2019-02-18T04:58:06.191Z,32.20
2019-02-18T05:00:31.012Z,32.20
2019-02-18T05:02:57.162Z,32.30
2019-02-18T05:05:23.322Z,32.10
2019-02-18T05:07:49.473Z,32.30
2019-02-18T05:10:15.629Z,32.20
2019-02-18T05:12:41.779Z,32.00
2019-02-18T05:15:07.935Z,32.20
2019-02-18T05:17:34.905Z,32.20
2019-02-18T05:20:01.825Z,32.20
2019-02-18T05:22:27.987Z,32.20
2019-02-18T05:24:54.142Z,31.90
2019-02-18T05:27:20.296Z,31.90
2019-02-18T05:29:46.449Z,31.80
2019-02-18T05:32:13.380Z,32.20
2019-02-18T05:34:39.563Z,32.10
2019-02-18T05:37:05.744Z,32.20
2019-02-18T05:39:31.912Z,32.10
2019-02-18T05:41:58.096Z,32.10
2019-02-18T05:44:24.264Z,32.10
2019-02-18T05:46:50.422Z,32.10
2019-02-18T05:49:16.568Z,32.10
2019-02-18T05:51:42.720Z,32.10
2019-02-18T05:54:08.868Z,32.20
2019-02-18T05:56:35.019Z,32.20
2019-02-18T05:59:01.186Z,32.20
2019-02-18T06:01:27.512Z,32.00
2019-02-18T06:03:53.661Z,32.00
2019-02-18T06:06:19.804Z,32.10
2019-02-18T06:08:45.964Z,32.10
2019-02-18T06:11:12.117Z,32.00
2019-02-18T06:13:38.284Z,32.20
2019-02-18T06:16:04.448Z,32.20
2019-02-18T06:18:30.657Z,32.20
2019-02-18T06:20:56.814Z,32.20
2019-02-18T06:23:23.750Z,32.00
2019-02-18T06:25:49.904Z,32.00
2019-02-18T06:28:16.081Z,32.20
2019-02-18T06:30:42.239Z,32.20
2019-02-18T06:33:08.409Z,32.10
2019-02-18T06:35:34.572Z,32.00
2019-02-18T06:38:00.764Z,32.10
2019-02-18T06:40:26.914Z,32.00
2019-02-18T06:42:53.062Z,32.00
2019-02-18T06:45:19.213Z,32.20
2019-02-18T06:47:45.367Z,32.10
2019-02-18T06:50:11.512Z,32.00
2019-02-18T06:52:37.679Z,32.00
2019-02-18T06:55:03.832Z,31.90
2019-02-18T06:57:29.986Z,32.20
2019-02-18T06:59:56.160Z,32.30
2019-02-18T07:02:22.314Z,32.00
2019-02-18T07:04:48.481Z,31.90
2019-02-18T07:07:14.633Z,32.10
2019-02-18T07:09:50.531Z,32.20
2019-02-18T07:12:06.991Z,32.00
2019-02-18T07:14:33.156Z,31.90
2019-02-18T07:16:59.313Z,32.10
2019-02-18T07:19:25.479Z,31.80
2019-02-18T07:21:51.629Z,31.70
2019-02-18T07:24:17.781Z,31.90
2019-02-18T07:26:43.937Z,31.90
2019-02-18T07:29:10.085Z,32.00
2019-02-18T07:31:36.243Z,31.90
2019-02-18T07:34:02.381Z,31.90
2019-02-18T07:36:28.539Z,31.80
2019-02-18T07:38:54.731Z,32.00
2019-02-18T07:41:20.872Z,31.80
2019-02-18T07:43:47.021Z,31.80
2019-02-18T07:46:13.181Z,31.80
2019-02-18T07:48:39.334Z,31.80
2019-02-18T07:51:05.473Z,31.80
2019-02-18T07:53:31.637Z,31.90
2019-02-18T07:55:57.784Z,31.80
2019-02-18T07:58:23.935Z,31.90
2019-02-18T08:00:50.109Z,31.80
2019-02-18T08:03:17.019Z,31.90
2019-02-18T08:05:43.205Z,31.90
2019-02-18T08:08:09.360Z,31.90
2019-02-18T08:10:35.509Z,31.80
2019-02-18T08:13:01.660Z,32.00
2019-02-18T08:15:28.583Z,31.90
2019-02-18T08:17:54.744Z,31.90
2019-02-18T08:20:20.914Z,32.00
2019-02-18T08:22:47.089Z,32.00
2019-02-18T08:25:13.242Z,32.00
2019-02-18T08:27:39.420Z,32.00
2019-02-18T08:30:06.340Z,32.00
2019-02-18T08:32:32.512Z,31.90
2019-02-18T08:34:58.664Z,32.10
2019-02-18T08:37:24.832Z,31.90
2019-02-18T08:39:50.976Z,31.90
2019-02-18T08:42:17.920Z,32.00
2019-02-18T08:44:44.082Z,32.00
2019-02-18T08:47:10.246Z,32.10
2019-02-18T08:49:36.397Z,32.00
2019-02-18T08:52:02.560Z,32.00
2019-02-18T08:54:28.711Z,32.10
2019-02-18T08:56:54.882Z,32.10
2019-02-18T08:59:21.033Z,32.00
2019-02-18T09:01:47.182Z,32.00
2019-02-18T09:04:13.343Z,32.00
2019-02-18T09:06:39.509Z,32.00
2019-02-18T09:09:05.662Z,32.00
2019-02-18T09:11:32.315Z,32.10
2019-02-18T09:13:58.468Z,32.30
2019-02-18T09:16:24.621Z,31.80
2019-02-18T09:18:50.769Z,32.10
2019-02-18T09:21:16.925Z,32.10
2019-02-18T09:23:43.072Z,32.10
2019-02-18T09:26:09.990Z,32.10
2019-02-18T09:28:36.149Z,32.00
2019-02-18T09:31:02.299Z,32.20
2019-02-18T09:33:28.453Z,32.30
2019-02-18T09:35:54.595Z,32.20
2019-02-18T09:38:24.769Z,32.20
2019-02-18T09:40:51.626Z,32.30
2019-02-18T09:43:16.361Z,32.30
2019-02-18T09:45:42.509Z,32.30
2019-02-18T09:48:08.657Z,32.40
2019-02-18T09:50:34.806Z,32.40
2019-02-18T09:53:02.531Z,32.40
2019-02-18T09:55:27.132Z,32.40
2019-02-18T09:57:53.296Z,32.40
2019-02-18T10:00:19.462Z,32.50
2019-02-18T10:02:45.624Z,32.50
2019-02-18T10:05:11.800Z,32.50
2019-02-18T10:07:37.948Z,32.50
2019-02-18T10:10:04.805Z,32.60
2019-02-18T10:12:30.316Z,32.60
2019-02-18T10:14:56.480Z,32.70
2019-02-18T10:17:22.749Z,32.70
2019-02-18T10:19:48.909Z,32.70
2019-02-18T10:22:15.062Z,32.70
2019-02-18T10:24:50.585Z,32.70
2019-02-18T10:27:07.404Z,32.70
2019-02-18T10:29:33.573Z,32.70
2019-02-18T10:31:59.726Z,32.70
2019-02-18T10:34:25.877Z,32.80
2019-02-18T10:36:52.028Z,32.90
2019-02-18T10:39:18.187Z,32.80
2019-02-18T10:41:44.338Z,32.90
2019-02-18T10:44:10.497Z,33.00
2019-02-18T10:46:36.653Z,32.90
2019-02-18T10:49:02.804Z,33.00
2019-02-18T10:51:28.952Z,32.90
2019-02-18T10:53:55.117Z,33.00
2019-02-18T10:56:22.060Z,33.00
2019-02-18T10:58:48.213Z,33.10
2019-02-18T11:01:14.815Z,33.10
2019-02-18T11:03:40.969Z,33.10
2019-02-18T11:06:09.233Z,33.10
2019-02-18T11:08:33.313Z,33.10
2019-02-18T11:10:59.468Z,33.10
2019-02-18T11:13:25.625Z,33.10
2019-02-18T11:15:51.797Z,33.10
2019-02-18T11:18:17.947Z,33.10
2019-02-18T11:20:44.114Z,33.20
2019-02-18T11:23:10.282Z,33.20
2019-02-18T11:25:36.461Z,33.30
2019-02-18T11:28:02.645Z,33.30
2019-02-18T11:30:28.801Z,33.20
2019-02-18T11:32:54.961Z,33.20
2019-02-18T11:35:21.122Z,33.20
2019-02-18T11:37:47.456Z,33.20
2019-02-18T11:40:13.615Z,33.30
2019-02-18T11:42:39.798Z,33.20
2019-02-18T11:45:05.980Z,33.20
2019-02-18T11:47:32.150Z,33.20
2019-02-18T11:49:58.305Z,33.20
2019-02-18T11:52:24.477Z,33.20
2019-02-18T11:54:50.636Z,33.20
2019-02-18T11:57:16.829Z,33.30
2019-02-18T11:59:42.984Z,33.40
2019-02-18T12:02:09.162Z,33.30
2019-02-18T12:04:35.343Z,33.40
2019-02-18T12:07:01.533Z,33.40
2019-02-18T12:09:28.460Z,33.40
2019-02-18T12:11:54.608Z,33.40
2019-02-18T12:14:20.770Z,33.40
2019-02-18T12:16:46.932Z,33.40
2019-02-18T12:19:13.080Z,33.40
2019-02-18T12:21:40.004Z,33.50
2019-02-18T12:24:06.162Z,33.50
2019-02-18T12:26:32.340Z,33.50
2019-02-18T12:28:58.508Z,33.50
2019-02-18T12:31:24.843Z,33.50
2019-02-18T12:33:52.051Z,33.60
2019-02-18T12:36:17.186Z,33.60
2019-02-18T12:38:43.349Z,33.70
2019-02-18T12:41:09.509Z,33.70
2019-02-18T12:43:35.673Z,33.70
2019-02-18T12:46:01.863Z,33.50
2019-02-18T12:48:28.029Z,33.80
2019-02-18T12:50:54.190Z,33.80
2019-02-18T12:53:20.534Z,33.80
2019-02-18T12:55:46.730Z,33.80
2019-02-18T12:58:13.009Z,33.80
2019-02-18T13:00:39.387Z,33.80
2019-02-18T13:03:06.293Z,33.90
2019-02-18T13:05:32.465Z,33.90
2019-02-18T13:07:58.656Z,33.80
2019-02-18T13:10:34.474Z,33.90
2019-02-18T13:12:51.036Z,33.90
2019-02-18T13:15:17.375Z,33.90
2019-02-18T13:17:43.558Z,33.90
2019-02-18T13:20:09.736Z,33.90
2019-02-18T13:22:36.064Z,33.90
2019-02-18T13:25:02.407Z,33.80
2019-02-18T13:27:28.745Z,33.90
2019-02-18T13:29:54.918Z,33.80
2019-02-18T13:32:21.100Z,33.80
2019-02-18T13:34:47.278Z,33.80
2019-02-18T13:37:13.444Z,33.90
2019-02-18T13:39:39.621Z,33.90
2019-02-18T13:42:07.719Z,34.00
2019-02-18T13:44:32.006Z,33.90
2019-02-18T13:46:58.157Z,33.90
2019-02-18T13:49:24.325Z,33.90
2019-02-18T13:51:56.379Z,33.80
2019-02-18T13:54:16.694Z,33.90
2019-02-18T13:56:42.857Z,33.90
2019-02-18T13:59:09.191Z,33.90
2019-02-18T14:01:35.504Z,33.90
2019-02-18T14:04:01.670Z,33.90
2019-02-18T14:06:27.830Z,33.90
2019-02-18T14:08:54.921Z,33.80
2019-02-18T14:11:21.085Z,33.90
2019-02-18T14:13:47.253Z,33.90
2019-02-18T14:16:13.408Z,33.90
2019-02-18T14:18:39.572Z,33.90
2019-02-18T14:21:05.903Z,33.90
2019-02-18T14:23:32.064Z,33.90
2019-02-18T14:25:58.255Z,33.90
2019-02-18T14:28:24.582Z,33.90
2019-02-18T14:30:50.756Z,33.90
2019-02-18T14:33:16.924Z,33.90
2019-02-18T14:35:43.131Z,33.90
2019-02-18T14:38:09.288Z,33.90
2019-02-18T14:40:37.356Z,34.00
2019-02-18T14:43:03.512Z,34.00
2019-02-18T14:45:29.837Z,34.00
2019-02-18T14:47:55.992Z,34.00
2019-02-18T14:50:22.144Z,34.10
2019-02-18T14:52:48.340Z,34.00
2019-02-18T14:55:14.677Z,34.00
2019-02-18T14:57:40.851Z,34.00
2019-02-18T15:00:07.006Z,34.10
2019-02-18T15:02:33.345Z,34.10
2019-02-18T15:04:59.671Z,34.10
2019-02-18T15:07:25.852Z,34.10
2019-02-18T15:09:52.003Z,34.10
2019-02-18T15:12:18.216Z,34.10
2019-02-18T15:14:44.540Z,34.00
2019-02-18T15:17:10.857Z,34.20
2019-02-18T15:19:37.028Z,34.10
2019-02-18T15:22:03.368Z,34.20
2019-02-18T15:24:29.533Z,34.20
2019-02-18T15:26:56.498Z,34.20
2019-02-18T15:29:22.664Z,34.20
2019-02-18T15:31:48.851Z,34.20
2019-02-18T15:34:15.005Z,34.20
2019-02-18T15:36:41.157Z,34.20
2019-02-18T15:39:07.332Z,34.30
2019-02-18T15:41:33.500Z,34.20
2019-02-18T15:43:59.657Z,34.30
2019-02-18T15:46:25.977Z,34.20
2019-02-18T15:48:52.141Z,34.30
2019-02-18T15:51:18.327Z,34.30
2019-02-18T15:53:44.489Z,34.30
2019-02-18T15:56:10.659Z,34.30
2019-02-18T15:58:36.826Z,34.30
2019-02-18T16:01:02.987Z,34.20
2019-02-18T16:03:29.316Z,34.30
2019-02-18T16:05:55.649Z,34.30
2019-02-18T16:08:21.992Z,34.30
2019-02-18T16:10:48.192Z,34.30
2019-02-18T16:13:14.385Z,34.30
2019-02-18T16:15:40.554Z,34.30
2019-02-18T16:18:06.733Z,34.30
2019-02-18T16:20:33.650Z,34.30
2019-02-18T16:22:59.809Z,34.30
2019-02-18T16:25:25.980Z,34.30
2019-02-18T16:27:52.155Z,34.30
2019-02-18T16:30:18.340Z,34.30
2019-02-18T16:32:50.472Z,34.30
2019-02-18T16:35:16.801Z,34.30
2019-02-18T16:37:43.116Z,34.30
2019-02-18T16:40:09.451Z,34.30
2019-02-18T16:42:35.768Z,34.30
2019-02-18T16:45:01.968Z,34.30
2019-02-18T16:47:28.128Z,34.30
2019-02-18T16:49:54.309Z,34.30
2019-02-18T16:52:20.456Z,35.00
2019-02-18T16:54:46.637Z,34.30
2019-02-18T16:57:12.800Z,34.30
2019-02-18T16:59:38.976Z,34.20
2019-02-18T17:02:05.138Z,34.30
2019-02-18T17:04:31.321Z,34.30
2019-02-18T17:06:57.543Z,34.30
2019-02-18T17:09:23.737Z,34.30
2019-02-18T17:11:49.896Z,34.40
2019-02-18T17:14:16.059Z,34.40
2019-02-18T17:16:42.380Z,34.30
2019-02-18T17:19:08.708Z,34.40
2019-02-18T17:21:34.883Z,34.40
2019-02-18T17:24:01.040Z,34.40
2019-02-18T17:26:27.198Z,34.40
2019-02-18T17:28:53.387Z,34.40
2019-02-18T17:31:19.552Z,34.40
2019-02-18T17:33:45.699Z,34.40
2019-02-18T17:36:11.849Z,34.40
2019-02-18T17:38:38.012Z,34.40
2019-02-18T17:41:04.179Z,34.40
2019-02-18T17:43:30.498Z,34.40
2019-02-18T17:45:56.672Z,34.40
2019-02-18T17:48:22.865Z,34.40
2019-02-18T17:50:49.037Z,34.40
2019-02-18T17:53:15.350Z,34.40
2019-02-18T17:55:41.523Z,34.40
2019-02-18T17:58:07.697Z,34.50
2019-02-18T18:00:33.864Z,34.40
2019-02-18T18:03:00.192Z,34.40
2019-02-18T18:05:26.514Z,34.50
2019-02-18T18:07:52.672Z,34.40
2019-02-18T18:10:18.895Z,34.40
2019-02-18T18:12:45.237Z,34.40
2019-02-18T18:15:11.442Z,34.40
2019-02-18T18:17:37.600Z,34.40
2019-02-18T18:20:04.520Z,34.30
2019-02-18T18:22:30.685Z,34.30
2019-02-18T18:24:57.012Z,34.40
2019-02-18T18:27:23.172Z,34.40
2019-02-18T18:29:49.360Z,34.30
2019-02-18T18:32:15.697Z,34.50
2019-02-18T18:34:41.852Z,34.40
2019-02-18T18:37:08.030Z,34.50
2019-02-18T18:39:34.180Z,34.40
2019-02-18T18:42:00.348Z,34.40
2019-02-18T18:44:26.504Z,34.40
2019-02-18T18:46:52.668Z,34.50
2019-02-18T18:49:18.853Z,34.40
2019-02-18T18:51:45.012Z,34.50
2019-02-18T18:54:11.161Z,34.40
2019-02-18T18:56:37.317Z,34.50
2019-02-18T18:59:03.480Z,34.50
2019-02-18T19:01:30.403Z,34.40
2019-02-18T19:03:56.573Z,34.40
2019-02-18T19:06:22.719Z,34.40
2019-02-18T19:08:48.864Z,34.50
2019-02-18T19:11:15.026Z,34.50
2019-02-18T19:13:42.232Z,34.50
2019-02-18T19:16:07.521Z,34.50
2019-02-18T19:18:33.673Z,34.50
2019-02-18T19:20:59.824Z,34.50
2019-02-18T19:23:26.001Z,34.50
2019-02-18T19:25:52.212Z,34.50
2019-02-18T19:28:18.362Z,34.50
2019-02-18T19:30:44.546Z,34.50
2019-02-18T19:33:10.704Z,34.40
2019-02-18T19:35:36.871Z,34.40
2019-02-18T19:38:03.211Z,34.50
2019-02-18T19:40:29.379Z,34.50
2019-02-18T19:42:55.537Z,34.40
2019-02-18T19:45:21.720Z,34.40
2019-02-18T19:47:47.890Z,34.40
2019-02-18T19:50:14.056Z,34.40
2019-02-18T19:52:40.835Z,34.40
2019-02-18T19:55:06.993Z,34.40
2019-02-18T19:57:33.164Z,34.40
2019-02-18T19:59:59.323Z,34.40
2019-02-18T20:02:25.483Z,34.40
2019-02-18T20:04:51.677Z,34.40
2019-02-18T20:07:17.832Z,34.40
2019-02-18T20:09:44.014Z,34.40
2019-02-18T20:12:10.180Z,34.30
2019-02-18T20:14:36.355Z,34.30
2019-02-18T20:17:02.538Z,34.30
2019-02-18T20:19:28.710Z,34.30
2019-02-18T20:21:54.893Z,34.30
2019-02-18T20:24:21.090Z,34.30
2019-02-18T20:26:47.250Z,34.30
2019-02-18T20:29:13.413Z,34.40
2019-02-18T20:31:39.568Z,34.30
2019-02-18T20:34:05.727Z,34.30
2019-02-18T20:36:31.888Z,34.40
2019-02-18T20:38:58.598Z,34.40
2019-02-18T20:41:24.231Z,34.40
2019-02-18T20:43:50.376Z,34.40
2019-02-18T20:46:16.548Z,34.30
2019-02-18T20:48:42.721Z,34.40
2019-02-18T20:51:08.886Z,34.30
2019-02-18T20:53:35.049Z,34.30
2019-02-18T20:56:01.216Z,34.30
2019-02-18T20:58:28.142Z,34.30
2019-02-18T21:00:54.308Z,34.30
2019-02-18T21:03:20.468Z,34.30
2019-02-18T21:05:46.649Z,34.20
2019-02-18T21:08:12.796Z,34.30
2019-02-18T21:10:39.010Z,34.30
2019-02-18T21:13:05.177Z,34.30
2019-02-18T21:15:31.532Z,34.20
2019-02-18T21:17:57.688Z,34.30
2019-02-18T21:20:23.861Z,34.20
2019-02-18T21:22:50.055Z,34.20
2019-02-18T21:25:16.277Z,34.30
2019-02-18T21:27:42.441Z,34.30
2019-02-18T21:30:14.781Z,34.30
2019-02-18T21:32:40.948Z,34.40
2019-02-18T21:35:07.112Z,34.40
2019-02-18T21:37:33.336Z,34.30
2019-02-18T21:39:59.542Z,34.40
2019-02-18T21:42:25.690Z,34.30
2019-02-18T21:44:51.843Z,34.30
2019-02-18T21:47:18.117Z,34.40
2019-02-18T21:49:44.308Z,34.40
2019-02-18T21:52:10.481Z,34.40
2019-02-18T21:54:36.649Z,34.40
2019-02-18T21:57:02.887Z,34.40
2019-02-18T21:59:29.088Z,34.40
2019-02-18T22:01:55.258Z,34.50
2019-02-18T22:04:21.458Z,34.40
2019-02-18T22:06:47.620Z,35.10
2019-02-18T22:09:13.793Z,34.40
2019-02-18T22:11:39.998Z,34.40
2019-02-18T22:14:06.159Z,34.40
2019-02-18T22:16:32.337Z,34.40
2019-02-18T22:18:58.493Z,34.40
2019-02-18T22:21:24.713Z,34.50
2019-02-18T22:23:50.886Z,34.50
2019-02-18T22:26:17.049Z,34.40
2019-02-18T22:28:43.213Z,34.50
2019-02-18T22:31:10.128Z,34.40
2019-02-18T22:33:36.284Z,34.40
2019-02-18T22:36:02.463Z,34.50
2019-02-18T22:38:28.620Z,34.50
2019-02-18T22:40:54.800Z,34.50
2019-02-18T22:43:21.003Z,34.50
2019-02-18T22:45:48.396Z,34.60
2019-02-18T22:48:14.580Z,34.60
2019-02-18T22:50:40.736Z,34.60
2019-02-18T22:53:06.888Z,34.50
2019-02-18T22:55:33.054Z,34.60
2019-02-18T22:57:59.229Z,34.50
2019-02-18T23:00:25.379Z,34.60
2019-02-18T23:02:56.772Z,34.60
2019-02-18T23:05:22.925Z,34.60
2019-02-18T23:07:49.077Z,34.60
2019-02-18T23:10:15.239Z,34.60
2019-02-18T23:12:42.188Z,34.60
2019-02-18T23:15:08.352Z,34.50
2019-02-18T23:17:35.437Z,34.60
2019-02-18T23:20:01.616Z,34.60
2019-02-18T23:22:27.807Z,34.60
2019-02-18T23:24:53.960Z,34.60
2019-02-18T23:27:20.113Z,34.60
2019-02-18T23:29:46.319Z,34.60
2019-02-18T23:32:12.476Z,34.60
2019-02-18T23:34:38.639Z,34.70
2019-02-18T23:37:04.796Z,34.60
2019-02-18T23:39:30.942Z,34.70
2019-02-18T23:41:57.096Z,34.70
2019-02-18T23:44:23.272Z,34.60
2019-02-18T23:46:49.445Z,34.70
2019-02-18T23:49:15.612Z,34.70
2019-02-18T23:51:41.773Z,34.70
2019-02-18T23:54:07.937Z,34.70
2019-02-18T23:56:34.093Z,34.70
2019-02-18T23:59:00.277Z,34.70
